Time;durP1;ratioP1;P1;durP2;ratioP2;P2;SDS_P1;SDS_P2;PMS_P1;PMS_P2;Temp;Humidity;BMP_temperature;BMP_pressure;BME280_temperature;BME280_humidity;BME280_pressure;Samples;Min_cycle;Max_cycle;Signal;HPM_P1;HPM_P2
2021/05/18 00:02:21;;;;;;;;;;;;;;;13.40;74.34;95805.02;1667511;86;20173;-78
2021/05/18 00:04:47;;;;;;;;;;;;;;;13.40;74.05;95801.88;1725304;83;20453;-78
2021/05/18 00:07:19;;;;;;;;;;;;;;;13.41;74.35;95797.40;1729770;83;20167;-79
2021/05/18 00:12:28;;;;;;;;;;;;;;;13.51;74.16;95805.11;1730322;82;20171;-79
2021/05/18 00:14:54;;;;;;;;;;;;;;;13.45;73.22;95791.26;1733034;83;20219;-79
2021/05/18 00:17:20;;;;;;;;;;;;;;;13.46;74.13;95792.91;1732608;83;20222;-79
2021/05/18 00:19:46;;;;;;;;;;;;;;;13.47;73.89;95794.56;1729084;83;20188;-78
2021/05/18 00:22:12;;;;;;;;;;;;;;;13.48;73.99;95794.89;1731803;82;20152;-80
2021/05/18 00:24:38;;;;;;;;;;;;;;;13.50;74.79;95794.23;1730281;83;20463;-80
2021/05/18 00:27:05;;;;;;;;;;;;;;;13.52;73.74;95790.41;1730404;83;20155;-79
2021/05/18 00:29:31;;;;;;;;;;;;;;;13.50;73.74;95794.23;1729554;82;20171;-79
2021/05/18 00:31:58;;;;;;;;;;;;;;;13.43;73.82;95798.06;1730340;82;20163;-79
2021/05/18 00:34:25;;;;;;;;;;;;;;;13.35;73.21;95796.23;1729756;83;20163;-78
2021/05/18 00:36:51;;;;;;;;;;;;;;;13.25;72.69;95800.42;1729480;82;20163;-79
2021/05/18 00:39:18;;;;;;;;;;;;;;;13.15;72.52;95796.31;1732925;83;20147;-77
2021/05/18 00:41:46;;;;;;;;;;;;;;;13.08;73.13;95802.30;1729674;83;20148;-79
2021/05/18 00:44:13;;;;;;;;;;;;;;;13.00;73.29;95799.68;1730844;82;20151;-79
2021/05/18 00:46:39;;;;;;;;;;;;;;;12.93;72.77;95800.04;1733018;83;20145;-79
2021/05/18 00:49:06;;;;;;;;;;;;;;;12.89;74.11;95798.23;1729647;82;20163;-78
2021/05/18 00:51:34;;;;;;;;;;;;;;;12.91;74.20;95796.73;1729054;83;20159;-79
2021/05/18 00:54:06;;;;;;;;;;;;;;;12.92;74.10;95801.03;1730587;83;20136;-79
2021/05/18 00:59:01;;;;;;;;;;;;;;;12.85;73.66;95796.09;1731500;83;20580;-79
2021/05/18 01:01:29;;;;;;;;;;;;;;;12.79;73.34;95797.08;1732599;83;20227;-80
2021/05/18 01:03:55;;;;;;;;;;;;;;;12.77;73.98;95800.39;1760031;81;20185;-76
2021/05/18 01:06:29;;;;;;;;;;;;;;;12.72;74.77;95798.77;1732110;82;20140;-79
2021/05/18 01:09:09;;;;;;;;;;;;;;;12.59;76.68;95803.72;1730624;82;20574;-79
2021/05/18 01:11:38;;;;;;;;;;;;;;;12.52;74.40;95806.23;1733392;83;20203;-79
2021/05/18 01:14:11;;;;;;;;;;;;;;;12.52;74.93;95808.87;1732981;82;20152;-79
2021/05/18 01:16:38;;;;;;;;;;;;;;;12.54;75.15;95808.70;1756781;80;20156;-78
2021/05/18 01:19:05;;;;;;;;;;;;;;;12.57;74.87;95805.73;1708655;83;20176;-80
2021/05/18 01:21:32;;;;;;;;;;;;;;;12.57;74.16;95808.37;1728069;82;20164;-79
2021/05/18 01:23:58;;;;;;;;;;;;;;;12.57;74.29;95804.41;1730258;82;20163;-79
2021/05/18 01:26:26;;;;;;;;;;;;;;;12.56;74.11;95800.92;1729657;82;20140;-79
2021/05/18 01:28:52;;;;;;;;;;;;;;;12.52;74.12;95804.91;1729207;82;20167;-77
2021/05/18 01:31:22;;;;;;;;;;;;;;;12.48;73.99;95812.33;1730978;83;20156;-79
2021/05/18 01:33:47;;;;;;;;;;;;;;;12.55;75.51;95814.32;1729496;82;20162;-79
2021/05/18 01:36:17;;;;;;;;;;;;;;;12.55;75.08;95808.53;1727989;83;20184;-79
2021/05/18 01:43:59;;;;;;;;;;;;;;;12.64;74.88;95808.03;1760316;81;20156;-78
2021/05/18 01:46:27;;;;;;;;;;;;;;;12.68;73.67;95811.16;1731039;83;20235;-79
2021/05/18 01:48:58;;;;;;;;;;;;;;;12.65;73.46;95808.36;1728937;82;20213;-78
2021/05/18 01:51:32;;;;;;;;;;;;;;;12.68;73.99;95808.00;1676260;84;20176;-79
2021/05/18 01:54:01;;;;;;;;;;;;;;;12.73;74.29;95810.14;1697705;82;20186;-78
2021/05/18 01:59:10;;;;;;;;;;;;;;;12.78;73.59;95804.69;1650941;85;20156;-79
2021/05/18 02:01:39;;;;;;;;;;;;;;;12.80;74.01;95811.96;1666819;85;20177;-80
2021/05/18 02:04:06;;;;;;;;;;;;;;;12.85;74.20;95811.45;1667680;85;20184;-78
2021/05/18 02:06:35;;;;;;;;;;;;;;;12.85;73.52;95812.77;1667992;85;20169;-79
2021/05/18 02:09:05;;;;;;;;;;;;;;;12.88;74.24;95816.89;1680045;84;20182;-79
2021/05/18 02:11:33;;;;;;;;;;;;;;;12.89;73.28;95825.16;1700617;83;20226;-77
2021/05/18 02:14:04;;;;;;;;;;;;;;;12.81;73.00;95826.83;1699869;84;20250;-78
2021/05/18 02:16:33;;;;;;;;;;;;;;;12.76;72.98;95825.17;1698162;83;20506;-78
2021/05/18 02:21:39;;;;;;;;;;;;;;;12.74;72.93;95832.95;1698993;84;20238;-78
2021/05/18 02:26:41;;;;;;;;;;;;;;;12.68;73.44;95833.13;1691352;84;20158;-78
2021/05/18 02:29:07;;;;;;;;;;;;;;;12.64;73.66;95831.31;1668759;85;20152;-79
2021/05/18 02:31:34;;;;;;;;;;;;;;;12.70;73.80;95835.11;1668465;85;20176;-79
2021/05/18 02:34:08;;;;;;;;;;;;;;;12.75;73.79;95828.00;1698468;84;20157;-77
2021/05/18 02:36:36;;;;;;;;;;;;;;;12.79;73.48;95827.49;1669966;85;20173;-79
2021/05/18 02:39:04;;;;;;;;;;;;;;;12.79;73.06;95828.81;1662144;86;20197;-78
2021/05/18 02:41:30;;;;;;;;;;;;;;;12.75;72.61;95826.67;1697168;84;20155;-78
2021/05/18 02:44:10;;;;;;;;;;;;;;;12.68;72.86;95829.16;1689001;85;20181;-78
2021/05/18 02:49:22;;;;;;;;;;;;;;;12.74;73.27;95829.83;1696451;84;20160;-79
2021/05/18 02:51:48;;;;;;;;;;;;;;;12.80;73.78;95830.47;1691249;85;20175;-78
2021/05/18 02:54:19;;;;;;;;;;;;;;;12.83;72.95;95838.55;1686353;85;20190;-78
2021/05/18 02:57:05;;;;;;;;;;;;;;;12.80;73.70;95834.44;1659301;85;20155;-78
2021/05/18 02:59:29;;;;;;;;;;;;;;;12.83;73.97;95829.81;1683550;84;20542;-79
2021/05/18 03:01:59;;;;;;;;;;;;;;;12.86;73.94;95828.13;1684844;85;20170;-79
2021/05/18 03:04:26;;;;;;;;;;;;;;;12.87;73.28;95829.78;1684043;85;20174;-78
2021/05/18 03:06:53;;;;;;;;;;;;;;;12.88;73.08;95835.41;1678218;85;20275;-78
2021/05/18 03:09:21;;;;;;;;;;;;;;;12.88;73.11;95834.08;1680438;85;20241;-79
2021/05/18 03:11:49;;;;;;;;;;;;;;;12.91;73.27;95837.21;1681365;85;20167;-79
2021/05/18 03:14:16;;;;;;;;;;;;;;;12.94;73.42;95839.53;1682365;85;20233;-77
2021/05/18 03:16:43;;;;;;;;;;;;;;;13.00;73.05;95843.33;1680307;85;20175;-79
2021/05/18 03:19:11;;;;;;;;;;;;;;;13.03;74.08;95839.02;1682595;85;20159;-80
2021/05/18 03:21:41;;;;;;;;;;;;;;;13.07;73.47;95839.00;1682916;85;20155;-78
2021/05/18 03:24:08;;;;;;;;;;;;;;;13.10;73.75;95843.12;1677754;85;20174;-79
2021/05/18 03:26:36;;;;;;;;;;;;;;;13.13;73.15;95840.95;1677892;85;20162;-78
2021/05/18 03:29:15;;;;;;;;;;;;;;;13.02;73.20;95840.02;1681592;85;20223;-79
2021/05/18 03:34:32;;;;;;;;;;;;;;;12.97;72.64;95830.42;1681212;85;20166;-78
2021/05/18 03:36:53;;;;;;;;;;;;;;;12.93;72.31;95842.36;1679923;85;20211;-78
2021/05/18 03:39:19;;;;;;;;;;;;;;;12.95;72.67;95836.38;1682082;85;20230;-78
2021/05/18 03:44:28;;;;;;;;;;;;;;;12.97;72.33;95825.14;1659569;85;20187;-79
2021/05/18 03:52:20;;;;;;;;;;;;;;;12.86;72.22;95824.16;1681089;85;20246;-78
2021/05/18 04:02:59;;;;;;;;;;;;;;;13.10;73.11;95826.77;1677934;85;20263;-78
2021/05/18 04:19:03;;;;;;;;;;;;;;;13.11;71.78;95822.28;1686661;85;20202;-78
2021/05/18 05:01:23;;;;;;;;;;;;;;;13.08;72.14;95824.78;1673572;85;20186;-80
2021/05/18 05:06:36;;;;;;;;;;;;;;;13.07;71.41;95823.13;1695622;84;20214;-77
2021/05/18 05:14:24;;;;;;;;;;;;;;;12.81;72.11;95824.19;1697877;83;20158;-79
2021/05/18 05:16:51;;;;;;;;;;;;;;;12.88;72.43;95827.47;1697175;84;20267;-76
2021/05/18 05:19:17;;;;;;;;;;;;;;;12.97;72.76;95822.49;1697644;84;20181;-78
2021/05/18 05:21:44;;;;;;;;;;;;;;;13.11;72.13;95820.48;1697325;84;20554;-82
2021/05/18 05:24:13;;;;;;;;;;;;;;;13.12;71.93;95827.42;1698208;84;20513;-79
2021/05/18 05:26:43;;;;;;;;;;;;;;;12.99;71.72;95822.34;1697054;84;20154;-78
2021/05/18 05:29:09;;;;;;;;;;;;;;;12.97;72.24;95818.52;1698116;84;20181;-79
2021/05/18 05:31:37;;;;;;;;;;;;;;;12.88;71.96;95820.86;1697405;84;20170;-79
2021/05/18 05:34:03;;;;;;;;;;;;;;;12.81;72.21;95824.67;1699634;84;20186;-79
2021/05/18 05:36:30;;;;;;;;;;;;;;;12.74;71.76;95821.89;1699545;84;20210;-79
2021/05/18 05:39:09;;;;;;;;;;;;;;;12.67;72.22;95824.86;1727065;83;20540;-79
2021/05/18 05:41:30;;;;;;;;;;;;;;;12.68;72.23;95833.63;1702339;83;20501;-78
2021/05/18 05:43:57;;;;;;;;;;;;;;;12.77;72.50;95839.23;1727254;83;20164;-79
2021/05/18 05:46:23;;;;;;;;;;;;;;;12.90;73.57;95830.78;1726453;83;20167;-79
2021/05/18 05:48:58;;;;;;;;;;;;;;;12.99;72.56;95829.77;1727067;83;20168;-79
2021/05/18 05:51:17;;;;;;;;;;;;;;;13.07;72.07;95837.67;1725366;83;20556;-79
2021/05/18 05:53:43;;;;;;;;;;;;;;;13.10;71.95;95833.38;1732390;83;20171;-79
2021/05/18 05:56:09;;;;;;;;;;;;;;;13.12;71.81;95835.36;1732236;83;20163;-78
2021/05/18 05:58:35;;;;;;;;;;;;;;;12.99;71.93;95813.09;1727823;83;20176;-79
2021/05/18 06:01:01;;;;;;;;;;;;;;;13.18;71.66;95836.48;1728830;82;20135;-79
2021/05/18 06:03:28;;;;;;;;;;;;;;;13.26;71.69;95831.66;1729136;82;20171;-80
2021/05/18 06:05:54;;;;;;;;;;;;;;;13.28;71.39;95827.03;1728756;82;20163;-79
2021/05/18 06:08:21;;;;;;;;;;;;;;;13.24;71.43;95834.48;1728870;82;20136;-80
2021/05/18 06:10:51;;;;;;;;;;;;;;;13.36;71.39;95834.94;1729931;82;20201;-80
2021/05/18 06:13:40;;;;;;;;;;;;;;;13.63;71.22;95836.83;1732162;82;20200;-79
2021/05/18 06:37:33;;;;;;;;;;;;;;;14.75;66.16;95828.11;1732380;83;20467;-80
2021/05/18 06:42:41;;;;;;;;;;;;;;;14.75;66.28;95822.32;1732434;83;20171;-78
2021/05/18 06:47:51;;;;;;;;;;;;;;;14.73;66.83;95824.81;1732513;83;20231;-77
2021/05/18 06:52:46;;;;;;;;;;;;;;;14.78;66.50;95826.44;1784530;80;20183;-77
2021/05/18 06:55:19;;;;;;;;;;;;;;;14.89;66.86;95834.44;1784384;80;20163;-77
2021/05/18 06:57:51;;;;;;;;;;;;;;;14.92;65.47;95829.59;1784415;80;20215;-77
2021/05/18 07:00:22;;;;;;;;;;;;;;;14.83;66.60;95834.17;1750619;79;20304;-78
2021/05/18 07:02:51;;;;;;;;;;;;;;;14.74;65.48;95829.95;1721601;83;20184;-77
2021/05/18 07:05:26;;;;;;;;;;;;;;;14.64;64.32;95841.28;1720689;83;20235;-80
2021/05/18 07:07:50;;;;;;;;;;;;;;;14.70;65.34;95837.13;1683660;85;20198;-80
2021/05/18 07:10:14;;;;;;;;;;;;;;;14.87;66.75;95836.45;1714829;82;20167;-77
2021/05/18 07:12:40;;;;;;;;;;;;;;;15.02;64.62;95828.50;1693656;85;20207;-79
2021/05/18 07:15:07;;;;;;;;;;;;;;;15.18;64.75;95832.30;1696098;85;20251;-82
2021/05/18 07:17:33;;;;;;;;;;;;;;;15.50;65.81;95831.61;1723655;83;20140;-79
2021/05/18 07:19:59;;;;;;;;;;;;;;;15.99;66.61;95835.98;1728867;83;20171;-78
2021/05/18 07:22:25;;;;;;;;;;;;;;;16.57;64.16;95831.92;1728857;83;20167;-78
2021/05/18 07:24:53;;;;;;;;;;;;;;;17.13;61.14;95837.77;1728919;83;20148;-78
2021/05/18 07:27:19;;;;;;;;;;;;;;;17.59;60.59;95840.38;1728790;83;20163;-78
2021/05/18 07:29:47;;;;;;;;;;;;;;;17.95;62.07;95841.14;1728779;83;20222;-79
2021/05/18 07:32:13;;;;;;;;;;;;;;;18.07;59.63;95840.88;1728892;83;20170;-78
2021/05/18 07:34:39;;;;;;;;;;;;;;;18.19;54.90;95839.77;1728835;83;20140;-78
2021/05/18 07:37:05;;;;;;;;;;;;;;;18.22;60.33;95843.90;1728784;83;20184;-79
2021/05/18 07:39:31;;;;;;;;;;;;;;;18.09;58.37;95845.50;1728938;83;20200;-77
2021/05/18 07:41:57;;;;;;;;;;;;;;;18.12;55.03;95848.80;1728720;83;20144;-78
2021/05/18 07:44:23;;;;;;;;;;;;;;;18.04;58.68;95849.80;1728688;83;20476;-78
2021/05/18 07:46:49;;;;;;;;;;;;;;;17.97;58.19;95848.95;1728761;83;20191;-79
2021/05/18 07:49:27;;;;;;;;;;;;;;;17.92;56.34;95854.86;1728630;83;20469;-78
2021/05/18 08:05:31;;;;;;;;;;;;;;;17.18;58.82;95869.13;1701157;82;20503;-78
2021/05/18 08:07:56;;;;;;;;;;;;;;;16.98;59.45;95866.34;1726819;82;20226;-79
2021/05/18 08:12:57;;;;;;;;;;;;;;;16.81;59.73;95863.10;1728177;82;20161;-80
2021/05/18 10:34:28;;;;;;;;;;;;;;;16.12;51.40;95996.91;1733383;82;20165;-83
2021/05/18 10:36:56;;;;;;;;;;;;;;;16.17;52.09;96010.49;1716728;82;20146;-78
2021/05/18 10:39:26;;;;;;;;;;;;;;;16.11;53.22;96019.19;1704992;82;20226;-80
2021/05/18 10:41:53;;;;;;;;;;;;;;;16.08;53.56;96020.39;1723501;83;20163;-80
2021/05/18 10:44:20;;;;;;;;;;;;;;;16.14;53.12;96028.13;1727669;82;20166;-78
2021/05/18 10:46:55;;;;;;;;;;;;;;;16.04;52.88;96027.58;1725977;82;20538;-77
2021/05/18 10:49:35;;;;;;;;;;;;;;;16.08;53.35;96042.17;1700991;82;20150;-77
2021/05/18 10:52:07;;;;;;;;;;;;;;;16.12;53.39;96043.43;1717091;83;20154;-78
2021/05/18 10:54:38;;;;;;;;;;;;;;;16.17;53.91;96035.75;1709690;83;20159;-77
2021/05/18 10:57:14;;;;;;;;;;;;;;;16.23;52.31;96042.16;1708768;82;20180;-79
2021/05/18 10:59:49;;;;;;;;;;;;;;;16.26;51.73;96046.28;1711103;82;20191;-79
2021/05/18 11:02:24;;;;;;;;;;;;;;;16.29;51.85;96046.73;1694404;82;20229;-76
2021/05/18 11:05:00;;;;;;;;;;;;;;;16.32;51.80;96058.34;1696071;84;20154;-79
2021/05/18 11:07:44;;;;;;;;;;;;;;;16.21;51.76;96056.14;1716693;82;20200;-82
2021/05/18 11:10:16;;;;;;;;;;;;;;;16.08;49.95;96062.10;1738021;80;20160;-81
2021/05/18 11:12:43;;;;;;;;;;;;;;;16.00;51.41;96056.36;1775607;80;20135;-79
2021/05/18 11:15:19;;;;;;;;;;;;;;;15.97;49.67;96068.67;1732089;83;20144;-76
2021/05/18 11:17:52;;;;;;;;;;;;;;;15.99;50.81;96067.19;1734454;81;20220;-78
2021/05/18 11:26:00;;;;;;;;;;;;;;;15.98;50.22;96092.92;1732977;80;20203;-77
2021/05/18 11:28:33;;;;;;;;;;;;;;;16.06;49.75;96088.84;1731947;81;20191;-77
2021/05/18 11:31:02;;;;;;;;;;;;;;;16.12;48.93;96093.13;1740505;81;20543;-78
2021/05/18 11:33:37;;;;;;;;;;;;;;;16.13;49.52;96096.92;1758467;81;20506;-78
2021/05/18 11:36:09;;;;;;;;;;;;;;;16.09;49.21;96104.95;1734459;80;20160;-79
2021/05/18 11:38:54;;;;;;;;;;;;;;;16.10;48.85;96101.78;1741832;82;20237;-78
2021/05/18 11:41:25;;;;;;;;;;;;;;;16.06;49.01;96111.95;1757720;82;20470;-78
2021/05/18 11:43:56;;;;;;;;;;;;;;;16.16;49.30;96105.03;1758647;82;20145;-76
2021/05/18 11:46:24;;;;;;;;;;;;;;;16.17;50.06;96107.52;1734654;80;20167;-77
2021/05/18 11:49:03;;;;;;;;;;;;;;;16.15;49.44;96106.03;1730562;83;20163;-80
2021/05/18 11:51:43;;;;;;;;;;;;;;;16.19;50.89;96125.42;1731002;83;20167;-77
2021/05/18 11:54:10;;;;;;;;;;;;;;;16.01;50.94;96120.47;1731321;81;20163;-76
2021/05/18 11:56:37;;;;;;;;;;;;;;;15.88;50.92;96119.77;1730867;80;20195;-77
2021/05/18 11:59:12;;;;;;;;;;;;;;;15.78;51.69;96126.62;1729506;83;20156;-79
2021/05/18 12:01:45;;;;;;;;;;;;;;;15.67;51.51;96138.18;1726919;82;20256;-79
2021/05/18 12:04:13;;;;;;;;;;;;;;;15.54;51.86;96130.81;1730326;80;20184;-78
2021/05/18 12:06:55;;;;;;;;;;;;;;;15.49;52.17;96136.66;1740044;80;20184;-79
2021/05/18 12:09:22;;;;;;;;;;;;;;;15.43;51.97;96139.52;1742676;80;20500;-79
2021/05/18 12:11:58;;;;;;;;;;;;;;;15.41;52.81;96140.70;1729535;82;20182;-78
2021/05/18 12:14:25;;;;;;;;;;;;;;;15.38;53.42;96149.86;1733058;80;20279;-79
2021/05/18 12:16:52;;;;;;;;;;;;;;;15.38;53.13;96145.03;1728903;82;20172;-79
2021/05/18 12:19:20;;;;;;;;;;;;;;;15.44;53.21;96149.14;1705469;83;20187;-81
2021/05/18 12:21:52;;;;;;;;;;;;;;;15.46;52.97;96137.84;1732572;80;20152;-79
2021/05/18 12:24:21;;;;;;;;;;;;;;;15.46;53.26;96144.97;1732375;83;20508;-78
2021/05/18 12:26:51;;;;;;;;;;;;;;;15.54;52.87;96149.41;1732318;83;20208;-79
2021/05/18 12:29:36;;;;;;;;;;;;;;;15.64;53.19;96147.86;1732041;83;20171;-79
2021/05/18 12:32:26;;;;;;;;;;;;;;;15.78;53.28;96162.48;1735873;81;20168;-80
2021/05/18 12:34:58;;;;;;;;;;;;;;;15.85;52.60;96152.52;1730535;82;20175;-82
2021/05/18 12:37:36;;;;;;;;;;;;;;;15.75;52.65;96150.91;1733947;81;20190;-79
2021/05/18 12:40:14;;;;;;;;;;;;;;;15.79;53.55;96143.41;1741885;80;20155;-80
2021/05/18 12:42:44;;;;;;;;;;;;;;;15.88;53.18;96152.98;1730893;80;20796;-80
2021/05/18 12:45:21;;;;;;;;;;;;;;;15.98;53.18;96145.26;1722547;81;20246;-80
2021/05/18 12:47:54;;;;;;;;;;;;;;;16.15;52.67;96155.21;1754124;82;20135;-81
2021/05/18 12:50:21;;;;;;;;;;;;;;;16.32;52.94;96154.06;1694263;84;20151;-80
2021/05/18 12:52:50;;;;;;;;;;;;;;;16.38;52.53;96157.80;1696835;82;20178;-79
2021/05/18 12:55:27;;;;;;;;;;;;;;;16.44;51.98;96167.72;1728443;82;20183;-79
2021/05/18 12:57:55;;;;;;;;;;;;;;;16.46;51.73;96176.35;1727748;81;20243;-79
2021/05/18 13:00:39;;;;;;;;;;;;;;;16.47;51.73;96176.64;1727602;81;20496;-80
2021/05/18 13:03:20;;;;;;;;;;;;;;;16.43;51.99;96171.88;1730101;83;20232;-79
2021/05/18 13:05:52;;;;;;;;;;;;;;;16.41;51.91;96179.23;1720453;81;20171;-80
2021/05/18 13:08:23;;;;;;;;;;;;;;;16.38;51.70;96176.41;1734348;81;20305;-79
2021/05/18 13:13:44;;;;;;;;;;;;;;;16.16;50.74;96194.08;1742804;81;20140;-82
2021/05/18 13:16:25;;;;;;;;;;;;;;;15.98;51.00;96185.94;1749925;81;20723;-81
2021/05/18 13:19:01;;;;;;;;;;;;;;;15.93;51.54;96186.47;1762772;81;20239;-82
2021/05/18 13:21:40;;;;;;;;;;;;;;;16.07;52.28;96190.69;1756922;81;20827;-82
2021/05/18 13:24:25;;;;;;;;;;;;;;;16.19;52.26;96187.90;1744285;80;20481;-81
2021/05/18 13:26:40;;;;;;;;;;;;;;;16.30;52.50;96191.13;1746348;81;20529;-81
2021/05/18 13:29:09;;;;;;;;;;;;;;;16.34;51.86;96192.42;1742198;81;20496;-81
2021/05/18 13:31:38;;;;;;;;;;;;;;;16.43;52.51;96196.66;1737638;80;20524;-83
2021/05/18 13:34:06;;;;;;;;;;;;;;;16.49;52.27;96199.91;1736478;81;20523;-83
2021/05/18 13:36:34;;;;;;;;;;;;;;;16.39;51.08;96191.36;1733059;81;20496;-83
2021/05/18 13:39:08;;;;;;;;;;;;;;;16.09;50.27;96196.66;1747994;80;20241;-83
2021/05/18 13:41:35;;;;;;;;;;;;;;;15.78;51.46;96210.30;1730094;82;20227;-80
2021/05/18 13:44:06;;;;;;;;;;;;;;;15.51;52.27;96217.47;1737956;81;20166;-83
2021/05/18 13:46:32;;;;;;;;;;;;;;;15.24;53.34;96219.14;1732822;82;20172;-82
2021/05/18 13:48:59;;;;;;;;;;;;;;;15.06;53.17;96219.89;1731951;83;20203;-81
2021/05/18 13:51:26;;;;;;;;;;;;;;;14.89;53.64;96231.91;1731259;83;20167;-81
2021/05/18 13:53:52;;;;;;;;;;;;;;;14.70;53.95;96227.80;1731360;83;20160;-79
2021/05/18 13:56:23;;;;;;;;;;;;;;;14.66;54.14;96237.93;1731314;83;20536;-79
2021/05/18 13:58:51;;;;;;;;;;;;;;;14.62;54.65;96229.94;1698539;84;20174;-80
2021/05/18 14:01:18;;;;;;;;;;;;;;;14.63;54.63;96234.77;1699175;84;20509;-78
2021/05/18 14:03:44;;;;;;;;;;;;;;;14.58;54.79;96226.47;1732951;82;20143;-79
2021/05/18 14:06:11;;;;;;;;;;;;;;;14.57;55.25;96229.64;1732728;82;20516;-79
2021/05/18 14:08:38;;;;;;;;;;;;;;;14.60;55.13;96237.75;1732593;82;20152;-79
2021/05/18 14:11:11;;;;;;;;;;;;;;;14.61;55.20;96244.23;1752382;81;20253;-80
2021/05/18 14:13:39;;;;;;;;;;;;;;;14.62;54.83;96237.89;1763097;80;20185;-79
2021/05/18 14:16:08;;;;;;;;;;;;;;;14.66;54.84;96231.30;1760759;81;20556;-80
2021/05/18 14:18:34;;;;;;;;;;;;;;;14.79;54.89;96246.67;1763098;81;20553;-80
2021/05/18 14:21:02;;;;;;;;;;;;;;;14.83;54.56;96238.72;1760732;81;20240;-79
2021/05/18 14:26:13;;;;;;;;;;;;;;;14.95;53.97;96241.82;1734609;81;20235;-81
2021/05/18 14:28:40;;;;;;;;;;;;;;;14.94;53.57;96232.20;1736585;81;20152;-80
2021/05/18 14:31:08;;;;;;;;;;;;;;;15.05;53.47;96245.58;1732107;83;20179;-80
2021/05/18 14:33:35;;;;;;;;;;;;;;;15.07;53.33;96244.92;1732101;83;20171;-79
2021/05/18 14:36:02;;;;;;;;;;;;;;;15.19;53.43;96254.65;1732080;82;20147;-80
2021/05/18 14:38:28;;;;;;;;;;;;;;;15.18;53.06;96256.16;1699622;83;20166;-79
2021/05/18 14:56:42;;;;;;;;;;;;;;;15.58;51.94;96264.92;1762915;81;20191;-81
2021/05/18 14:59:09;;;;;;;;;;;;;;;15.57;51.23;96271.23;1762806;81;20195;-81
2021/05/18 15:01:35;;;;;;;;;;;;;;;15.51;51.16;96272.76;1762835;81;20216;-77
2021/05/18 15:04:01;;;;;;;;;;;;;;;15.52;51.84;96282.86;1762737;81;20176;-79
2021/05/18 15:06:32;;;;;;;;;;;;;;;15.57;51.90;96265.41;1762808;80;20163;-80
2021/05/18 15:08:58;;;;;;;;;;;;;;;15.57;51.47;96273.37;1775146;80;20255;-78
2021/05/18 15:11:24;;;;;;;;;;;;;;;15.55;51.74;96278.03;1779197;81;20168;-80
2021/05/18 15:13:51;;;;;;;;;;;;;;;15.50;51.76;96283.05;1779166;81;20187;-79
2021/05/18 15:16:17;;;;;;;;;;;;;;;15.47;52.31;96275.42;1779044;81;20261;-79
2021/05/18 15:18:50;;;;;;;;;;;;;;;15.49;52.49;96289.36;1779099;81;20172;-77
2021/05/18 15:21:12;;;;;;;;;;;;;;;15.48;52.33;96293.53;1778544;80;20183;-83
2021/05/18 15:23:40;;;;;;;;;;;;;;;15.36;52.43;96285.12;1779248;81;20151;-81
2021/05/18 15:26:06;;;;;;;;;;;;;;;15.29;52.34;96283.66;1779352;81;20223;-82
2021/05/18 15:28:34;;;;;;;;;;;;;;;15.20;52.20;96277.55;1779123;81;20168;-77
2021/05/18 15:31:00;;;;;;;;;;;;;;;15.11;52.53;96287.38;1779064;81;20235;-79
2021/05/18 15:33:27;;;;;;;;;;;;;;;15.02;52.71;96286.23;1779149;81;20247;-77
2021/05/18 15:35:53;;;;;;;;;;;;;;;14.92;53.11;96290.42;1779085;81;20187;-79
2021/05/18 15:38:19;;;;;;;;;;;;;;;14.85;53.24;96292.11;1779056;81;20160;-79
2021/05/18 15:40:46;;;;;;;;;;;;;;;14.82;53.46;96290.12;1779146;80;20179;-81
2021/05/18 15:43:13;;;;;;;;;;;;;;;14.74;53.61;96293.27;1779057;81;20179;-78
2021/05/18 15:45:39;;;;;;;;;;;;;;;14.63;53.91;96288.62;1778999;81;20163;-79
2021/05/18 15:48:06;;;;;;;;;;;;;;;14.53;54.44;96291.95;1779120;81;20227;-77
2021/05/18 15:50:33;;;;;;;;;;;;;;;14.50;54.48;96286.48;1779073;81;20484;-79
2021/05/18 15:53:00;;;;;;;;;;;;;;;14.45;54.78;96305.22;1779012;81;20516;-78
2021/05/18 15:55:26;;;;;;;;;;;;;;;14.25;54.67;96273.75;1779523;81;20511;-78
2021/05/18 15:57:52;;;;;;;;;;;;;;;14.31;55.03;96294.30;1779168;81;20187;-78
2021/05/18 16:00:19;;;;;;;;;;;;;;;14.18;55.71;96293.48;1779231;81;20164;-78
2021/05/18 16:02:46;;;;;;;;;;;;;;;14.11;55.83;96295.11;1779099;81;20593;-78
2021/05/18 16:05:12;;;;;;;;;;;;;;;14.09;55.76;96300.25;1779266;81;20191;-79
2021/05/18 16:07:41;;;;;;;;;;;;;;;14.01;55.94;96301.91;1778273;80;20173;-78
2021/05/18 16:10:07;;;;;;;;;;;;;;;13.99;55.72;96303.89;1762699;80;20184;-79
2021/05/18 16:12:33;;;;;;;;;;;;;;;13.99;55.64;96300.42;1762859;81;20267;-78
2021/05/18 16:14:59;;;;;;;;;;;;;;;13.90;55.81;96307.04;1762891;81;20248;-79
2021/05/18 16:17:25;;;;;;;;;;;;;;;13.85;55.70;96311.17;1762790;81;20220;-78
2021/05/18 16:19:52;;;;;;;;;;;;;;;13.78;55.61;96310.17;1762853;81;20192;-78
2021/05/18 16:22:18;;;;;;;;;;;;;;;13.72;55.75;96313.78;1762886;81;20397;-79
2021/05/18 16:24:44;;;;;;;;;;;;;;;13.71;55.78;96325.36;1762878;80;20228;-78
2021/05/18 16:27:14;;;;;;;;;;;;;;;13.69;56.01;96313.28;1762945;81;20248;-78
2021/05/18 16:29:40;;;;;;;;;;;;;;;13.68;55.93;96324.86;1762830;80;20168;-81
2021/05/18 16:32:06;;;;;;;;;;;;;;;13.66;55.98;96330.80;1763017;81;20243;-78
2021/05/18 16:34:32;;;;;;;;;;;;;;;13.62;56.52;96317.06;1763001;81;20199;-79
2021/05/18 16:36:59;;;;;;;;;;;;;;;13.56;56.52;96319.04;1762984;81;20508;-83
2021/05/18 16:39:25;;;;;;;;;;;;;;;13.52;57.05;96330.93;1753228;81;20176;-78
2021/05/18 16:41:53;;;;;;;;;;;;;;;13.48;57.40;96322.99;1732830;83;20241;-79
2021/05/18 16:44:19;;;;;;;;;;;;;;;13.43;57.62;96331.41;1732953;83;20246;-78
2021/05/18 16:46:46;;;;;;;;;;;;;;;13.35;57.77;96322.91;1732703;83;20562;-79
2021/05/18 16:49:13;;;;;;;;;;;;;;;13.32;57.51;96328.51;1732600;83;20242;-78
2021/05/18 16:51:39;;;;;;;;;;;;;;;13.28;57.89;96326.67;1732954;82;20230;-78
2021/05/18 16:54:07;;;;;;;;;;;;;;;13.25;57.86;96326.17;1732806;83;20194;-78
2021/05/18 16:56:33;;;;;;;;;;;;;;;13.20;58.52;96326.64;1732794;83;20230;-79
2021/05/18 16:59:00;;;;;;;;;;;;;;;13.19;58.07;96334.25;1732831;83;20539;-78
2021/05/18 17:01:26;;;;;;;;;;;;;;;13.11;58.92;96337.70;1732941;83;20511;-79
2021/05/18 17:03:52;;;;;;;;;;;;;;;13.05;58.51;96334.84;1732726;83;20515;-81
2021/05/18 17:06:18;;;;;;;;;;;;;;;13.01;58.63;96345.39;1732698;83;20507;-79
2021/05/18 17:08:44;;;;;;;;;;;;;;;12.97;59.26;96336.95;1735488;81;20527;-78
2021/05/18 17:11:11;;;;;;;;;;;;;;;12.96;59.16;96340.58;1769213;81;20504;-78
2021/05/18 17:13:37;;;;;;;;;;;;;;;12.91;58.56;96338.40;1782016;80;20199;-78
2021/05/18 17:16:04;;;;;;;;;;;;;;;12.72;58.81;96320.94;1782112;80;20199;-77
2021/05/18 17:18:31;;;;;;;;;;;;;;;12.82;59.23;96345.95;1777306;80;20179;-78
2021/05/18 17:20:58;;;;;;;;;;;;;;;12.77;58.96;96341.63;1749976;80;20154;-76
2021/05/18 17:23:24;;;;;;;;;;;;;;;12.72;59.38;96348.70;1769037;80;20210;-77
2021/05/18 17:25:50;;;;;;;;;;;;;;;12.64;59.49;96346.01;1775358;80;20270;-77
2021/05/18 17:28:17;;;;;;;;;;;;;;;12.53;59.64;96356.31;1781966;81;20179;-77
2021/05/18 17:30:43;;;;;;;;;;;;;;;12.47;59.54;96351.66;1777748;81;20171;-77
2021/05/18 17:33:15;;;;;;;;;;;;;;;12.43;59.49;96363.03;1778853;81;20182;-76
2021/05/18 17:35:40;;;;;;;;;;;;;;;12.39;60.61;96356.88;1734508;82;20170;-76
2021/05/18 17:38:06;;;;;;;;;;;;;;;12.35;59.96;96364.29;1735589;81;20154;-78
2021/05/18 17:40:37;;;;;;;;;;;;;;;12.29;59.71;96358.30;1749722;80;20210;-78
2021/05/18 17:43:00;;;;;;;;;;;;;;;12.27;60.17;96361.07;1773608;80;20226;-79
2021/05/18 17:45:26;;;;;;;;;;;;;;;12.27;60.41;96372.14;1759726;81;20198;-78
2021/05/18 17:47:52;;;;;;;;;;;;;;;12.23;60.83;96372.09;1782041;80;20183;-78
2021/05/18 17:50:20;;;;;;;;;;;;;;;12.25;60.56;96378.06;1782247;81;20187;-78
2021/05/18 17:52:46;;;;;;;;;;;;;;;12.25;60.11;96378.06;1774797;80;20594;-78
2021/05/18 17:55:14;;;;;;;;;;;;;;;12.25;60.40;96376.75;1779284;81;20171;-78
2021/05/18 17:57:42;;;;;;;;;;;;;;;12.24;60.89;96373.76;1739423;80;20191;-77
2021/05/18 18:00:09;;;;;;;;;;;;;;;12.23;60.21;96381.34;1743883;80;20538;-77
2021/05/18 18:02:42;;;;;;;;;;;;;;;12.21;60.85;96380.66;1739004;80;20166;-77
2021/05/18 18:05:09;;;;;;;;;;;;;;;12.22;60.13;96381.00;1734882;82;20171;-77
2021/05/18 18:07:35;;;;;;;;;;;;;;;12.21;60.71;96381.50;1730644;80;20198;-77
2021/05/18 18:10:03;;;;;;;;;;;;;;;12.23;61.00;96387.47;1711789;82;20176;-78